Loogootee, Indiana
Current Conditions -  °F | °C
As of 4:55 AM on Friday 31 Oct 2014 (Local Time) from KDCY Reporting Station
Haze Haze  
Wind Chill: 43°   Ceiling: 4600
Heat Index: 45°   Visibility: 5mi
Dew Point: 45°   Wind: 5mph
Humidity: 100%   Direction: 320°NW
Pressure: 30.02"   Gusts: NA
Location:  38.68°N, 86.91°W
Report Text: KDCY 310955Z AUTO 32004KT 5SM BR SCT030 BKN046 OVC090 07/07 A3002 RMK AO2 T00730073
Loading
Personal Weather Stations






























Interactive Weather Map
Tropical Storm Tracking
New forecast layout! Learn more

10-Day Weather Forecast

Advertisements
Track Severe Weather on mobile